Time;durP1;ratioP1;P1;durP2;ratioP2;P2;SDS_P1;SDS_P2;PMS_P1;PMS_P2;Temp;Humidity;BMP_temperature;BMP_pressure;BME280_temperature;BME280_humidity;BME280_pressure;Samples;Min_cycle;Max_cycle;Signal;HPM_P1;HPM_P2
2024/03/10 00:00:14;;;;;;;29.80;17.90;;;;;;;0.30;60.39;99549.77;107301;1257;71487;-39
2024/03/10 00:02:46;;;;;;;33.00;17.50;;;;;;;0.27;60.53;99545.86;106506;1257;1003041;-39
2024/03/10 00:05:14;;;;;;;34.10;18.30;;;;;;;0.23;60.71;99544.27;107262;1257;59135;-38
2024/03/10 00:07:43;;;;;;;31.40;19.20;;;;;;;0.21;60.68;99537.56;107068;1257;72059;-39
2024/03/10 00:10:17;;;;;;;34.10;18.50;;;;;;;0.19;60.79;99539.30;107150;1257;67597;-39
2024/03/10 00:12:47;;;;;;;36.90;18.70;;;;;;;0.17;61.00;99535.97;107122;1257;71504;-38
2024/03/10 00:15:16;;;;;;;;;;;;;;;0.14;61.25;99533.02;107172;1257;59621;-38
2024/03/10 00:17:44;;;;;;;34.30;19.10;;;;;;;0.12;61.40;99531.66;107242;1257;59596;-39
2024/03/10 00:20:12;;;;;;;35.90;19.10;;;;;;;0.09;61.44;99528.94;107266;1257;73083;-39
2024/03/10 00:22:40;;;;;;;30.30;18.50;;;;;;;0.07;61.65;99533.80;107335;1257;67557;-39
2024/03/10 00:25:08;;;;;;;35.90;19.30;;;;;;;0.05;61.86;99528.88;107200;1257;72659;-39
2024/03/10 00:27:36;;;;;;;38.00;19.60;;;;;;;0.05;61.78;99531.79;107170;1258;59560;-39
2024/03/10 00:30:05;;;;;;;36.90;20.60;;;;;;;0.04;61.85;99529.30;107175;1257;59964;-39
2024/03/10 00:32:33;;;;;;;34.30;19.70;;;;;;;0.04;61.83;99530.17;107113;1257;73059;-38
2024/03/10 00:35:02;;;;;;;33.00;19.20;;;;;;;0.02;61.91;99527.57;107289;1257;66279;-39
2024/03/10 00:37:29;;;;;;;39.60;20.20;;;;;;;0.02;62.15;99528.37;107371;1260;72857;-39
2024/03/10 00:39:57;;;;;;;33.80;17.70;;;;;;;0.05;62.16;99527.21;107196;1257;60945;-38
2024/03/10 00:42:25;;;;;;;30.70;18.50;;;;;;;0.14;62.08;99523.00;107272;1257;59599;-39
2024/03/10 00:44:52;;;;;;;35.60;18.10;;;;;;;0.18;61.91;99519.55;107226;1257;72381;-39
2024/03/10 00:47:21;;;;;;;36.90;18.60;;;;;;;0.20;61.95;99519.08;107276;1257;66292;-39
2024/03/10 00:49:49;;;;;;;36.60;18.80;;;;;;;0.22;61.91;99514.63;107144;1257;72702;-38
2024/03/10 00:52:17;;;;;;;36.00;18.50;;;;;;;0.23;61.94;99516.85;107169;1257;59907;-38
2024/03/10 00:54:44;;;;;;;32.10;18.50;;;;;;;0.23;61.80;99509.45;107121;1257;59776;-39
2024/03/10 00:57:12;;;;;;;37.80;19.30;;;;;;;0.23;61.59;99512.59;107143;1257;72236;-38
2024/03/10 00:59:39;;;;;;;35.10;19.40;;;;;;;0.22;61.49;99512.50;107254;1257;67878;-38
2024/03/10 01:02:07;;;;;;;35.90;18.70;;;;;;;0.19;61.57;99510.66;107200;1262;71504;-38
2024/03/10 01:04:35;;;;;;;33.60;18.70;;;;;;;0.16;61.67;99506.86;107212;1257;59509;-38
2024/03/10 01:07:03;;;;;;;38.60;20.30;;;;;;;0.12;61.49;99503.83;107095;1257;59387;-38
2024/03/10 01:09:31;;;;;;;35.10;18.90;;;;;;;0.09;61.56;99503.83;106364;1263;1003559;-38
2024/03/10 01:11:59;;;;;;;40.60;19.50;;;;;;;0.04;61.56;99503.40;107143;1257;67547;-38
2024/03/10 01:14:26;;;;;;;33.80;18.90;;;;;;;-0.02;61.85;99502.42;107102;1257;72721;-38
2024/03/10 01:16:54;;;;;;;32.90;19.20;;;;;;;-0.06;61.74;99497.30;107155;1260;60235;-38
2024/03/10 01:19:22;;;;;;;34.90;19.80;;;;;;;-0.11;61.93;99501.19;107221;1257;59759;-38
2024/03/10 01:21:50;;;;;;;34.40;20.00;;;;;;;-0.14;62.34;99502.68;107214;1257;73820;-38
2024/03/10 01:24:21;;;;;;;35.20;19.50;;;;;;;-0.20;62.28;99498.10;106534;1257;1003462;-38
2024/03/10 01:26:49;;;;;;;34.40;18.80;;;;;;;-0.23;62.28;99495.05;107207;1261;72640;-38
2024/03/10 01:29:17;;;;;;;29.00;17.70;;;;;;;-0.27;62.44;99493.55;107202;1257;59565;-38
2024/03/10 01:31:44;;;;;;;32.30;18.00;;;;;;;-0.32;62.45;99492.23;106437;1257;1002972;-38
2024/03/10 01:34:12;;;;;;;32.00;18.10;;;;;;;-0.36;62.74;99490.73;107076;1258;74151;-39
2024/03/10 01:36:40;;;;;;;35.30;18.80;;;;;;;-0.40;62.60;99486.00;107131;1259;67749;-38
2024/03/10 01:39:08;;;;;;;35.10;16.90;;;;;;;-0.44;62.83;99488.95;107202;1257;71783;-38
2024/03/10 01:41:36;;;;;;;30.00;17.20;;;;;;;-0.41;62.52;99489.89;107221;1257;60527;-38
2024/03/10 01:44:05;;;;;;;27.20;16.60;;;;;;;-0.33;62.73;99486.55;107097;1257;60389;-38
2024/03/10 01:46:36;;;;;;;32.00;16.50;;;;;;;-0.30;62.67;99492.17;107258;1257;73872;-39
2024/03/10 01:49:04;;;;;;;29.10;17.90;;;;;;;-0.31;62.95;99490.46;107237;1257;67736;-39
2024/03/10 01:51:32;;;;;;;30.50;17.70;;;;;;;-0.30;62.92;99490.67;107201;1257;72664;-39
2024/03/10 01:53:59;;;;;;;32.30;17.40;;;;;;;-0.30;62.96;99489.88;107240;1257;60428;-39
2024/03/10 01:56:27;;;;;;;32.70;17.80;;;;;;;-0.32;62.95;99494.25;107245;1257;59582;-39
2024/03/10 01:58:55;;;;;;;32.70;18.20;;;;;;;-0.35;62.96;99493.88;107086;1257;73825;-39
2024/03/10 02:01:22;;;;;;;29.00;17.50;;;;;;;-0.37;63.10;99490.52;107221;1257;67582;-39
2024/03/10 02:03:50;;;;;;;35.20;19.10;;;;;;;-0.39;63.00;99487.27;107084;1257;72731;-39
2024/03/10 02:06:18;;;;;;;32.70;18.40;;;;;;;-0.43;63.03;99487.84;107244;1257;60441;-38
2024/03/10 02:08:47;;;;;;;32.10;18.30;;;;;;;-0.48;63.33;99491.34;107158;1257;60309;-38
2024/03/10 02:11:14;;;;;;;35.60;19.00;;;;;;;-0.52;63.25;99492.30;107124;1257;73832;-39
2024/03/10 02:13:43;;;;;;;40.80;20.30;;;;;;;-0.56;63.45;99494.63;107123;1257;67886;-39
2024/03/10 02:16:11;;;;;;;35.20;20.20;;;;;;;-0.60;63.37;99494.36;107165;1261;72677;-38
2024/03/10 02:18:39;;;;;;;44.60;22.30;;;;;;;-0.64;63.41;99490.84;107121;1263;60440;-39
2024/03/10 02:21:09;;;;;;;42.40;20.50;;;;;;;-0.69;63.65;99494.46;107157;1257;60466;-39
2024/03/10 02:23:40;;;;;;;42.80;22.40;;;;;;;-0.75;63.97;99491.42;105676;1257;1003715;-39
2024/03/10 02:26:09;;;;;;;41.10;20.30;;;;;;;-0.80;64.40;99490.89;107244;1257;66301;-39
2024/03/10 02:28:56;;;;;;;28.00;16.90;;;;;;;-0.78;64.45;99488.05;107318;1257;71451;-38
2024/03/10 02:48:09;;;;;;;37.90;21.30;;;;;;;-0.69;64.69;99477.95;107189;1260;60310;-38
2024/03/10 02:50:37;;;;;;;38.50;20.90;;;;;;;-0.72;64.84;99474.20;107217;1257;73838;-38
2024/03/10 02:53:04;;;;;;;41.50;21.40;;;;;;;-0.73;64.92;99476.66;107214;1257;67762;-38
2024/03/10 02:55:33;;;;;;;36.00;20.80;;;;;;;-0.74;65.17;99476.57;107155;1257;72956;-38
2024/03/10 02:58:03;;;;;;;38.50;21.50;;;;;;;-0.80;65.29;99470.48;107109;1257;60305;-38
2024/03/10 03:00:32;;;;;;;39.40;21.60;;;;;;;-0.80;65.33;99475.55;107136;1257;60316;-38
2024/03/10 03:03:00;;;;;;;38.10;21.40;;;;;;;-0.84;65.36;99471.14;107308;1257;73847;-38
2024/03/10 03:05:27;;;;;;;44.70;22.50;;;;;;;-0.85;65.39;99474.80;107232;1257;67960;-38
2024/03/10 03:07:57;;;;;;;38.30;20.60;;;;;;;-0.81;65.69;99476.58;107243;1257;72717;-38
2024/03/10 03:10:24;;;;;;;38.00;20.70;;;;;;;-0.71;65.86;99474.83;107259;1257;60297;-38
2024/03/10 03:12:53;;;;;;;36.50;20.10;;;;;;;-0.65;65.89;99473.70;107264;1257;60597;-38
2024/03/10 03:15:20;;;;;;;36.10;19.50;;;;;;;-0.63;66.24;99473.83;107324;1257;73831;-39
2024/03/10 03:17:48;;;;;;;38.50;22.00;;;;;;;-0.60;66.28;99471.73;107257;1256;67547;-39
2024/03/10 03:20:15;;;;;;;40.30;20.50;;;;;;;-0.59;66.30;99474.77;107239;1257;72738;-38
2024/03/10 03:22:44;;;;;;;37.20;20.30;;;;;;;-0.59;66.39;99473.69;107164;1256;60277;-39
2024/03/10 03:25:13;;;;;;;37.80;20.30;;;;;;;-0.60;66.53;99469.70;107229;1257;60386;-38
2024/03/10 03:27:41;;;;;;;36.90;19.80;;;;;;;-0.61;66.41;99467.41;107177;1256;73855;-38
2024/03/10 03:30:09;;;;;;;35.10;19.10;;;;;;;-0.63;66.39;99466.50;107247;1257;67560;-39
2024/03/10 03:32:37;;;;;;;40.20;20.40;;;;;;;-0.66;66.45;99464.39;107210;1257;72685;-39
2024/03/10 03:35:05;;;;;;;39.30;20.20;;;;;;;-0.69;66.46;99461.71;107227;1260;60437;-38
2024/03/10 03:37:32;;;;;;;39.30;20.10;;;;;;;-0.71;66.38;99463.22;107214;1257;60310;-38
2024/03/10 03:40:00;;;;;;;37.20;19.20;;;;;;;-0.73;66.40;99460.96;107152;1256;72575;-39
2024/03/10 03:42:27;;;;;;;37.20;19.50;;;;;;;-0.68;66.04;99458.88;107128;1256;66831;-38
2024/03/10 03:44:55;;;;;;;30.90;18.80;;;;;;;-0.60;66.00;99452.45;107211;1257;72409;-38
2024/03/10 03:47:22;;;;;;;36.70;18.80;;;;;;;-0.58;66.02;99451.99;107281;1257;60424;-39
2024/03/10 03:49:50;;;;;;;35.00;18.40;;;;;;;-0.57;66.20;99447.52;107236;1260;60294;-39
2024/03/10 03:52:18;;;;;;;35.20;19.40;;;;;;;-0.58;66.41;99448.59;107229;1257;73943;-38
2024/03/10 03:54:46;;;;;;;38.40;18.30;;;;;;;-0.62;66.46;99445.34;107262;1257;67966;-38
2024/03/10 03:57:14;;;;;;;36.40;19.70;;;;;;;-0.67;66.74;99442.41;107252;1257;72674;-38
2024/03/10 03:59:43;;;;;;;31.60;18.10;;;;;;;-0.71;66.92;99444.67;107250;1257;60233;-39
2024/03/10 04:02:11;;;;;;;36.70;18.00;;;;;;;-0.75;66.95;99444.36;107167;1257;60495;-39
2024/03/10 04:04:40;;;;;;;34.20;17.70;;;;;;;-0.80;67.20;99448.15;107122;1257;73858;-39
2024/03/10 04:07:07;;;;;;;34.40;18.80;;;;;;;-0.85;67.44;99449.05;107187;1260;66288;-39
2024/03/10 04:09:35;;;;;;;31.40;17.50;;;;;;;-0.86;67.79;99447.77;107157;1257;71376;-39
2024/03/10 04:12:03;;;;;;;32.00;17.50;;;;;;;-0.87;67.97;99449.21;107143;1257;60421;-38
2024/03/10 04:14:31;;;;;;;28.90;16.70;;;;;;;-0.79;67.83;99447.55;107204;1257;60419;-38
2024/03/10 04:16:58;;;;;;;30.40;17.10;;;;;;;-0.68;67.82;99446.36;107212;1257;74413;-39
2024/03/10 04:19:26;;;;;;;31.50;17.30;;;;;;;-0.63;67.97;99449.98;107281;1256;67033;-39
2024/03/10 04:21:54;;;;;;;32.90;17.20;;;;;;;-0.64;67.90;99453.83;107249;1257;70762;-38
2024/03/10 04:24:22;;;;;;;31.30;16.40;;;;;;;-0.64;67.97;99457.83;107306;1257;61112;-39
2024/03/10 04:26:49;;;;;;;31.60;16.50;;;;;;;-0.66;68.10;99460.77;107234;1256;60440;-39
2024/03/10 04:29:17;;;;;;;34.80;17.80;;;;;;;-0.67;68.02;99461.67;107256;1256;73844;-39
2024/03/10 04:31:45;;;;;;;31.90;17.00;;;;;;;-0.68;68.07;99458.56;107279;1257;67563;-39
2024/03/10 04:34:13;;;;;;;38.20;17.30;;;;;;;-0.70;68.20;99458.42;107186;1256;72709;-39
2024/03/10 04:36:40;;;;;;;33.40;17.00;;;;;;;-0.73;68.30;99457.70;107155;1256;60407;-39
2024/03/10 04:39:09;;;;;;;33.60;16.00;;;;;;;-0.76;68.29;99458.10;107248;1257;60322;-39
2024/03/10 04:41:37;;;;;;;;;;;;;;;-0.73;68.32;99460.09;107235;1257;73817;-39
2024/03/10 04:44:05;;;;;;;33.00;16.20;;;;;;;-0.65;68.11;99463.48;107172;1256;66286;-39
2024/03/10 04:46:33;;;;;;;31.00;16.20;;;;;;;-0.65;68.35;99468.22;107117;1256;71922;-39
2024/03/10 04:49:01;;;;;;;29.50;15.80;;;;;;;-0.64;68.59;99466.02;107203;1257;60356;-39
2024/03/10 04:51:28;;;;;;;29.70;16.30;;;;;;;-0.61;68.64;99470.94;107231;1256;60414;-39
2024/03/10 04:53:56;;;;;;;29.60;16.10;;;;;;;-0.58;68.69;99473.23;107224;1256;73893;-38
2024/03/10 04:56:23;;;;;;;25.10;15.50;;;;;;;-0.51;68.47;99472.75;107254;1256;67913;-39
2024/03/10 04:58:51;;;;;;;29.40;16.00;;;;;;;-0.44;68.36;99471.48;107227;1260;72675;-38
2024/03/10 05:01:19;;;;;;;31.60;15.50;;;;;;;-0.37;68.26;99473.17;107223;1260;61001;-39
2024/03/10 05:03:49;;;;;;;32.70;16.00;;;;;;;-0.31;68.27;99472.50;107262;1256;60414;-38
2024/03/10 05:06:17;;;;;;;;;;;;;;;-0.26;67.88;99474.10;107302;1260;72634;-39
2024/03/10 05:08:45;;;;;;;30.10;15.20;;;;;;;-0.22;67.99;99477.67;107198;1257;66309;-38
2024/03/10 05:11:15;;;;;;;20.40;11.30;;;;;;;-0.21;67.90;99479.11;107228;1257;71743;-39
2024/03/10 05:13:43;;;;;;;30.50;15.20;;;;;;;-0.20;67.80;99483.40;106450;1257;1003628;-37
2024/03/10 05:16:12;;;;;;;25.90;14.90;;;;;;;-0.10;67.66;99484.61;107214;1257;60434;-39
2024/03/10 05:18:40;;;;;;;28.40;14.70;;;;;;;0.03;67.37;99484.70;107227;1257;73836;-38
2024/03/10 05:21:08;;;;;;;25.30;13.80;;;;;;;0.14;67.32;99488.93;107170;1256;67720;-38
2024/03/10 05:23:35;;;;;;;28.40;14.60;;;;;;;0.18;67.49;99488.83;107144;1257;72701;-38
2024/03/10 05:26:03;;;;;;;32.00;15.60;;;;;;;0.21;67.44;99488.68;107221;1257;60494;-38
2024/03/10 05:28:32;;;;;;;32.10;15.30;;;;;;;0.27;67.43;99492.26;107324;1257;60356;-38
2024/03/10 05:30:59;;;;;;;28.70;15.20;;;;;;;0.31;67.56;99496.53;107331;1256;73614;-38
2024/03/10 05:33:27;;;;;;;26.60;15.20;;;;;;;0.30;67.61;99497.66;107258;1257;67914;-38
2024/03/10 05:35:55;;;;;;;31.20;16.40;;;;;;;0.30;67.36;99501.92;107238;1256;72782;-38
2024/03/10 05:38:22;;;;;;;29.30;14.90;;;;;;;0.31;67.50;99500.48;107268;1257;59280;-37
2024/03/10 05:40:52;;;;;;;28.10;15.40;;;;;;;0.32;67.47;99504.25;106496;1257;1002897;-38
2024/03/10 05:43:20;;;;;;;20.50;10.80;;;;;;;0.32;67.67;99506.96;107243;1257;73869;-38
2024/03/10 05:45:47;;;;;;;24.40;14.30;;;;;;;0.40;67.47;99507.23;107195;1257;67556;-38
2024/03/10 05:48:18;;;;;;;29.80;15.20;;;;;;;0.53;67.16;99505.77;107178;1257;71370;-39
2024/03/10 05:50:46;;;;;;;26.70;14.30;;;;;;;0.60;66.89;99500.27;107209;1257;60427;-38
2024/03/10 05:53:14;;;;;;;26.60;14.80;;;;;;;0.65;66.87;99502.00;107206;1256;60418;-38
2024/03/10 05:55:41;;;;;;;28.80;15.30;;;;;;;0.70;66.84;99500.48;107164;1257;73874;-38
2024/03/10 05:58:12;;;;;;;29.10;16.20;;;;;;;0.75;66.88;99499.17;107193;1256;67621;-38
2024/03/10 06:00:40;;;;;;;30.60;15.10;;;;;;;0.80;66.92;99495.20;107187;1256;72758;-38
2024/03/10 06:03:09;;;;;;;31.30;15.70;;;;;;;0.83;66.90;99499.05;107254;1256;60305;-38
2024/03/10 06:05:37;;;;;;;34.00;16.60;;;;;;;0.87;67.10;99499.45;107244;1257;60315;-38
2024/03/10 06:08:05;;;;;;;29.50;14.90;;;;;;;0.94;67.08;99500.30;107251;1256;73863;-38
2024/03/10 06:10:33;;;;;;;31.20;15.10;;;;;;;1.10;66.85;99492.52;107316;1256;65817;-40
2024/03/10 06:13:03;;;;;;;26.40;14.10;;;;;;;1.28;66.02;99487.48;107257;1260;72709;-38
2024/03/10 06:15:32;;;;;;;25.00;14.50;;;;;;;1.43;65.85;99492.51;107267;1256;60467;-38
2024/03/10 06:18:15;;;;;;;25.60;14.60;;;;;;;1.56;65.67;99489.80;107320;1257;60456;-38
2024/03/10 06:26:17;;;;;;;27.90;15.40;;;;;;;1.96;64.78;99491.45;107235;1256;72667;-38
2024/03/10 06:28:44;;;;;;;21.00;12.50;;;;;;;2.08;64.30;99490.34;107280;1257;60267;-39
2024/03/10 06:31:12;;;;;;;24.60;15.10;;;;;;;2.19;64.07;99485.88;107282;1257;60339;-39
2024/03/10 06:33:40;;;;;;;26.70;14.50;;;;;;;2.29;63.77;99482.67;107285;1260;73824;-39
2024/03/10 06:36:10;;;;;;;26.30;15.20;;;;;;;2.36;62.97;99480.90;107121;1257;66645;-39
2024/03/10 06:38:38;;;;;;;29.00;15.60;;;;;;;2.42;62.86;99487.57;107170;1257;72680;-39
2024/03/10 06:41:06;;;;;;;27.20;15.70;;;;;;;2.49;63.00;99489.70;107308;1257;60411;-39
2024/03/10 06:43:35;;;;;;;30.90;14.10;;;;;;;2.60;62.81;99495.23;107243;1257;59290;-39
2024/03/10 06:46:03;;;;;;;29.40;14.90;;;;;;;2.71;62.22;99500.02;107258;1257;72657;-39
2024/03/10 06:48:31;;;;;;;28.60;15.00;;;;;;;2.79;61.45;99496.45;107216;1256;67577;-39
2024/03/10 06:50:59;;;;;;;25.10;14.40;;;;;;;2.86;61.24;99499.27;107291;1257;72655;-38
2024/03/10 06:53:26;;;;;;;27.40;14.40;;;;;;;2.96;61.16;99495.39;107201;1257;60338;-38
2024/03/10 06:55:56;;;;;;;28.80;14.90;;;;;;;3.05;60.85;99497.41;107343;1257;60398;-39
2024/03/10 06:58:24;;;;;;;27.20;14.70;;;;;;;3.15;60.71;99500.11;107388;1257;73837;-39
2024/03/10 07:00:52;;;;;;;28.50;15.50;;;;;;;3.24;60.47;99503.03;107352;1257;67592;-38
2024/03/10 07:03:21;;;;;;;32.60;16.30;;;;;;;3.33;60.25;99503.86;107255;1257;72776;-39
2024/03/10 07:05:49;;;;;;;27.70;15.30;;;;;;;3.41;60.26;99504.25;107281;1257;60455;-39
2024/03/10 07:08:17;;;;;;;26.10;15.30;;;;;;;3.52;60.28;99505.61;107302;1257;60894;-39
2024/03/10 07:10:45;;;;;;;27.60;15.80;;;;;;;3.63;60.22;99503.87;107321;1257;72576;-39
2024/03/10 07:13:13;;;;;;;27.30;14.90;;;;;;;3.76;60.18;99511.33;107359;1257;67592;-39
2024/03/10 07:15:41;;;;;;;29.30;15.50;;;;;;;3.89;59.89;99512.25;107296;1257;71463;-39
2024/03/10 07:18:08;;;;;;;29.40;17.30;;;;;;;4.04;59.18;99518.13;107296;1257;60492;-39
2024/03/10 07:20:36;;;;;;;28.30;16.60;;;;;;;4.17;58.33;99522.61;107313;1257;60335;-39
2024/03/10 07:23:04;;;;;;;28.40;16.80;;;;;;;4.31;57.79;99519.51;107308;1257;73819;-38
2024/03/10 07:25:32;;;;;;;26.20;15.80;;;;;;;4.45;57.89;99521.04;107325;1257;67593;-38
2024/03/10 07:28:04;;;;;;;27.40;15.20;;;;;;;4.61;57.71;99517.22;107367;1258;71964;-39
2024/03/10 07:30:34;;;;;;;29.40;15.80;;;;;;;4.76;57.60;99518.30;107406;1257;60535;-39
2024/03/10 07:33:02;;;;;;;27.60;15.50;;;;;;;4.92;57.02;99521.77;107317;1257;60283;-38
2024/03/10 07:35:29;;;;;;;27.60;14.40;;;;;;;5.07;56.12;99524.78;107269;1257;73829;-39
2024/03/10 07:37:57;;;;;;;24.80;14.80;;;;;;;5.19;55.75;99525.13;107289;1257;67181;-39
2024/03/10 07:40:25;;;;;;;25.50;14.90;;;;;;;5.34;55.35;99523.95;107232;1257;72715;-39
2024/03/10 07:42:52;;;;;;;26.20;15.30;;;;;;;5.51;55.06;99521.08;107200;1257;60662;-38
2024/03/10 07:45:20;;;;;;;25.50;14.70;;;;;;;5.69;54.47;99523.94;107282;1257;60467;-39
2024/03/10 07:47:48;;;;;;;24.10;14.60;;;;;;;5.89;54.01;99530.05;107251;1257;73812;-39
2024/03/10 07:50:17;;;;;;;25.70;13.80;;;;;;;5.85;53.86;99500.92;107304;1257;66318;-39
2024/03/10 07:52:46;;;;;;;21.80;13.70;;;;;;;6.30;53.12;99534.52;107228;1257;72688;-39
2024/03/10 07:55:16;;;;;;;23.60;14.30;;;;;;;6.51;52.26;99534.86;107242;1257;61338;-39
2024/03/10 07:57:44;;;;;;;22.60;13.50;;;;;;;6.70;51.00;99530.49;107285;1257;60278;-38
2024/03/10 08:00:16;;;;;;;23.50;14.00;;;;;;;6.84;50.91;99526.39;107217;1258;73925;-39
2024/03/10 08:02:44;;;;;;;21.60;13.40;;;;;;;7.04;50.42;99525.32;107304;1256;67891;-40
2024/03/10 08:05:12;;;;;;;22.90;13.30;;;;;;;7.22;49.59;99524.95;107272;1257;72660;-39
2024/03/10 08:07:41;;;;;;;22.30;13.30;;;;;;;7.40;49.81;99526.27;107286;1256;60290;-38
2024/03/10 08:10:13;;;;;;;21.50;12.90;;;;;;;7.65;49.19;99519.77;107120;1256;60311;-38
2024/03/10 08:12:45;;;;;;;21.50;12.60;;;;;;;7.87;48.83;99520.27;107215;1257;73927;-38
2024/03/10 08:15:13;;;;;;;22.30;14.20;;;;;;;8.09;48.45;99517.72;107201;1258;66380;-38
2024/03/10 08:17:43;;;;;;;22.60;13.20;;;;;;;8.32;47.90;99522.91;107303;1256;73006;-38
2024/03/10 08:20:14;;;;;;;20.70;12.90;;;;;;;8.51;47.41;99522.50;107307;1257;60471;-38
2024/03/10 08:22:45;;;;;;;19.80;12.80;;;;;;;8.70;46.71;99520.81;107321;1256;60530;-38
2024/03/10 08:25:13;;;;;;;20.60;12.40;;;;;;;8.82;45.86;99522.94;107370;1257;72633;-38
2024/03/10 08:27:40;;;;;;;22.20;12.60;;;;;;;8.90;46.07;99526.30;107324;1256;66463;-38
2024/03/10 08:30:09;;;;;;;20.10;12.10;;;;;;;9.01;46.08;99526.63;107354;1257;72684;-38
2024/03/10 08:32:38;;;;;;;19.40;12.80;;;;;;;9.16;45.20;99522.55;107344;1260;60424;-38
2024/03/10 08:35:09;;;;;;;18.20;12.20;;;;;;;9.24;45.02;99522.06;107290;1257;60332;-37
2024/03/10 08:37:44;;;;;;;20.10;13.20;;;;;;;9.31;45.42;99522.42;107285;1257;73912;-38
2024/03/10 08:40:16;;;;;;;19.40;12.10;;;;;;;9.51;45.12;99522.84;107310;1257;67911;-39
2024/03/10 08:42:44;;;;;;;17.90;12.60;;;;;;;9.72;44.21;99530.56;107230;1257;72711;-38
2024/03/10 08:45:12;;;;;;;20.70;12.60;;;;;;;9.81;43.45;99524.06;107360;1258;60459;-39
2024/03/10 08:47:41;;;;;;;20.50;11.20;;;;;;;9.80;42.97;99525.04;107279;1257;60546;-39
2024/03/10 08:50:10;;;;;;;19.60;12.00;;;;;;;9.83;43.42;99525.73;107299;1257;73983;-38
2024/03/10 08:52:39;;;;;;;19.50;11.60;;;;;;;9.96;43.00;99523.11;107352;1257;67590;-38
2024/03/10 08:55:07;;;;;;;17.20;10.60;;;;;;;10.06;43.08;99518.33;107351;1260;73112;-39
2024/03/10 08:57:38;;;;;;;18.80;11.00;;;;;;;10.31;42.81;99533.71;107319;1257;60392;-39
2024/03/10 09:00:08;;;;;;;15.90;9.20;;;;;;;10.52;42.16;99538.89;107373;1256;60334;-38
2024/03/10 09:02:37;;;;;;;17.20;9.10;;;;;;;10.72;41.62;99541.19;107317;1261;73844;-39
2024/03/10 09:05:07;;;;;;;17.90;9.30;;;;;;;10.93;40.71;99541.70;107361;1257;66331;-39
2024/03/10 09:07:35;;;;;;;21.60;10.50;;;;;;;11.12;40.79;99545.24;107228;1257;72657;-38
2024/03/10 09:10:04;;;;;;;14.00;8.60;;;;;;;11.32;40.10;99543.23;107247;1256;60431;-38
2024/03/10 09:12:32;;;;;;;12.00;8.10;;;;;;;11.49;39.77;99539.89;107298;1261;60954;-39
2024/03/10 09:15:01;;;;;;;13.20;8.00;;;;;;;11.68;38.93;99541.55;107256;1257;75975;-38
2024/03/10 09:17:29;;;;;;;11.60;7.70;;;;;;;11.92;38.46;99545.30;107293;1261;67684;-38
2024/03/10 09:19:58;;;;;;;13.30;8.10;;;;;;;12.17;37.71;99534.37;107105;1257;200775;-39
2024/03/10 09:24:03;;;;;;;13.90;8.60;;;;;;;12.45;36.70;99531.44;104158;1291;599918;-39
2024/03/10 09:26:31;;;;;;;11.70;6.90;;;;;;;12.53;36.16;99530.48;106590;1267;59221;-38
2024/03/10 09:29:00;;;;;;;14.10;8.10;;;;;;;12.62;36.03;99527.88;106680;1266;60448;-39
2024/03/10 09:31:28;;;;;;;13.20;7.60;;;;;;;12.74;36.02;99531.92;106632;1266;72247;-39
2024/03/10 09:33:57;;;;;;;11.40;7.30;;;;;;;12.82;35.91;99534.19;106636;1270;66418;-39
2024/03/10 09:36:26;;;;;;;11.90;7.80;;;;;;;12.95;36.03;99531.86;106601;1267;72725;-39
2024/03/10 09:38:54;;;;;;;12.90;7.80;;;;;;;13.17;35.54;99533.08;106638;1264;192782;-39
2024/03/10 09:41:21;;;;;;;11.70;7.20;;;;;;;13.34;35.38;99528.28;106648;1264;62314;-38
2024/03/10 09:43:50;;;;;;;8.60;6.40;;;;;;;13.44;33.91;99527.84;106620;1264;71677;-38
2024/03/10 09:46:18;;;;;;;11.60;7.20;;;;;;;13.48;33.45;99526.73;106822;1264;67623;-38
2024/03/10 09:48:46;;;;;;;14.40;7.50;;;;;;;13.45;33.04;99528.09;106714;1267;71404;-39
2024/03/10 09:51:14;;;;;;;14.70;7.30;;;;;;;13.38;33.85;99530.90;106781;1266;59759;-39
2024/03/10 09:53:43;;;;;;;12.80;7.90;;;;;;;13.45;34.72;99527.79;106707;1266;59599;-39
2024/03/10 09:56:14;;;;;;;11.70;7.30;;;;;;;13.61;33.68;99521.47;106791;1264;72354;-39
2024/03/10 09:58:50;;;;;;;11.40;8.10;;;;;;;13.62;33.26;99524.83;106806;1264;67917;-39
2024/03/10 10:01:18;;;;;;;13.50;7.50;;;;;;;13.60;33.84;99522.25;106965;1261;70682;-39
2024/03/10 10:03:50;;;;;;;11.80;7.90;;;;;;;13.73;34.27;99525.31;106834;1260;59601;-39
2024/03/10 10:06:19;;;;;;;14.20;9.60;;;;;;;13.82;33.19;99523.05;106866;1260;59555;-39
2024/03/10 10:08:54;;;;;;;13.60;9.00;;;;;;;13.85;33.84;99518.64;107037;1261;72978;-39
2024/03/10 10:11:25;;;;;;;18.70;13.50;;;;;;;13.97;34.13;99518.18;106864;1260;68068;-39
2024/03/10 10:14:23;;;;;;;12.60;9.10;;;;;;;14.20;33.66;99519.45;106907;1260;72817;-40
2024/03/10 10:16:57;;;;;;;15.00;9.20;;;;;;;14.49;32.45;99518.33;106733;1263;60429;-40
2024/03/10 10:19:26;;;;;;;12.70;8.50;;;;;;;14.67;32.48;99521.93;106917;1261;59512;-39
2024/03/10 10:21:53;;;;;;;12.30;7.90;;;;;;;14.80;32.47;99515.45;106913;1266;72083;-40
2024/03/10 10:24:21;;;;;;;11.60;8.50;;;;;;;14.95;32.53;99513.71;106929;1262;67572;-40
2024/03/10 10:27:16;;;;;;;11.40;8.30;;;;;;;15.12;31.98;99515.25;106872;1264;71817;-39
2024/03/10 10:29:50;;;;;;;14.20;8.40;;;;;;;15.23;31.61;99517.08;106857;1260;60601;-40
2024/03/10 10:32:22;;;;;;;13.30;8.20;;;;;;;15.32;31.11;99515.38;106878;1260;60412;-40
2024/03/10 10:34:54;;;;;;;13.20;8.30;;;;;;;15.40;30.34;99507.20;107013;1260;73195;-39
2024/03/10 10:37:21;;;;;;;12.30;7.50;;;;;;;15.38;30.38;99505.63;106862;1261;67887;-39
2024/03/10 10:39:49;;;;;;;12.70;7.50;;;;;;;15.33;30.62;99508.91;106864;1263;71467;-39
2024/03/10 10:42:17;;;;;;;12.30;8.20;;;;;;;15.31;30.42;99506.39;106765;1263;61382;-40
2024/03/10 10:45:01;;;;;;;13.80;9.80;;;;;;;15.36;30.56;99504.77;106807;1260;59735;-40
2024/03/10 10:47:31;;;;;;;13.90;10.00;;;;;;;15.46;30.82;99506.27;106811;1261;71871;-40
2024/03/10 10:49:59;;;;;;;10.70;7.30;;;;;;;15.63;30.15;99503.67;106801;1260;67561;-40
2024/03/10 10:52:27;;;;;;;12.20;7.00;;;;;;;15.61;30.33;99506.32;106903;1263;73478;-40
2024/03/10 10:54:55;;;;;;;11.20;7.30;;;;;;;15.65;29.90;99509.91;106826;1260;59624;-39
2024/03/10 10:57:25;;;;;;;12.10;7.70;;;;;;;15.75;29.62;99508.12;106970;1264;59224;-39
2024/03/10 10:59:52;;;;;;;11.70;7.60;;;;;;;15.78;29.10;99504.06;107019;1261;75283;-39
2024/03/10 11:02:20;;;;;;;11.50;7.40;;;;;;;15.73;29.34;99502.50;106919;1264;68032;-39
2024/03/10 11:04:48;;;;;;;12.80;7.70;;;;;;;15.71;29.07;99495.09;106819;1264;71331;-39
2024/03/10 11:07:15;;;;;;;10.00;7.20;;;;;;;15.65;29.80;99494.84;106861;1263;60100;-39
2024/03/10 11:09:43;;;;;;;11.60;7.80;;;;;;;15.72;30.19;99494.92;107249;1257;59547;-39
2024/03/10 11:12:22;;;;;;;10.60;6.90;;;;;;;15.97;29.46;99494.75;107217;1262;73176;-39
2024/03/10 11:14:52;;;;;;;13.60;7.90;;;;;;;16.20;29.40;99497.86;107227;1257;67860;-40
2024/03/10 11:17:22;;;;;;;16.00;8.60;;;;;;;16.31;28.85;99494.94;107154;1258;70914;-40
2024/03/10 11:19:54;;;;;;;9.80;7.10;;;;;;;16.39;29.04;99492.11;107160;1257;59688;-39
2024/03/10 11:22:25;;;;;;;14.70;8.40;;;;;;;16.40;28.50;99496.02;107254;1257;59501;-39
2024/03/10 11:25:16;;;;;;;14.40;7.60;;;;;;;16.34;29.01;99499.24;107238;1257;71929;-39
2024/03/10 11:27:45;;;;;;;10.60;7.80;;;;;;;16.43;28.72;99492.73;107257;1257;68866;-39
2024/03/10 11:30:41;;;;;;;11.80;8.20;;;;;;;16.45;27.97;99491.47;107220;1257;74863;-39
2024/03/10 11:33:13;;;;;;;12.80;8.20;;;;;;;16.30;28.96;99493.55;107158;1257;59640;-38
2024/03/10 11:35:41;;;;;;;11.80;7.40;;;;;;;16.40;28.47;99494.06;107230;1257;59535;-39
2024/03/10 11:38:09;;;;;;;11.50;7.60;;;;;;;16.44;28.20;99485.13;107153;1257;73044;-40
2024/03/10 11:40:37;;;;;;;12.20;7.70;;;;;;;16.60;28.17;99492.86;106910;1257;68716;-39
2024/03/10 11:43:05;;;;;;;9.70;7.90;;;;;;;16.79;27.62;99492.63;107095;1257;70903;-39
2024/03/10 11:45:35;;;;;;;12.80;7.70;;;;;;;16.87;27.36;99493.30;107261;1258;60198;-40